sensor_id;sensor_type;location;lat;lon;timestamp;P1;durP1;ratioP1;P2;durP2;ratioP2
42514;SDS011;28144;49.920;18.730;2024-02-28T00:00:38;127.93;;;69.07;;
42514;SDS011;28144;49.920;18.730;2024-02-28T00:03:24;125.93;;;64.22;;
42514;SDS011;28144;49.920;18.730;2024-02-28T00:05:50;112.63;;;61.58;;
42514;SDS011;28144;49.920;18.730;2024-02-28T00:08:15;126.87;;;63.23;;
42514;SDS011;28144;49.920;18.730;2024-02-28T00:13:07;112.10;;;58.67;;
42514;SDS011;28144;49.920;18.730;2024-02-28T00:15:33;99.53;;;54.13;;
42514;SDS011;28144;49.920;18.730;2024-02-28T00:17:59;101.97;;;55.93;;
42514;SDS011;28144;49.920;18.730;2024-02-28T00:20:26;87.53;;;46.25;;
42514;SDS011;28144;49.920;18.730;2024-02-28T00:22:52;87.85;;;47.88;;
42514;SDS011;28144;49.920;18.730;2024-02-28T00:25:18;89.00;;;49.25;;
42514;SDS011;28144;49.920;18.730;2024-02-28T00:27:44;94.53;;;48.97;;
42514;SDS011;28144;49.920;18.730;2024-02-28T00:30:11;104.20;;;54.67;;
42514;SDS011;28144;49.920;18.730;2024-02-28T00:32:37;96.90;;;51.80;;
42514;SDS011;28144;49.920;18.730;2024-02-28T00:35:03;92.53;;;48.93;;
42514;SDS011;28144;49.920;18.730;2024-02-28T00:37:29;99.10;;;51.13;;
42514;SDS011;28144;49.920;18.730;2024-02-28T00:39:55;111.30;;;56.22;;
42514;SDS011;28144;49.920;18.730;2024-02-28T00:42:21;100.63;;;54.70;;
42514;SDS011;28144;49.920;18.730;2024-02-28T00:44:47;101.35;;;52.28;;
42514;SDS011;28144;49.920;18.730;2024-02-28T00:47:13;103.97;;;53.67;;
42514;SDS011;28144;49.920;18.730;2024-02-28T00:49:38;97.70;;;52.90;;
42514;SDS011;28144;49.920;18.730;2024-02-28T00:52:05;98.57;;;54.33;;
42514;SDS011;28144;49.920;18.730;2024-02-28T00:54:31;113.50;;;60.78;;
42514;SDS011;28144;49.920;18.730;2024-02-28T00:56:56;115.57;;;62.80;;
42514;SDS011;28144;49.920;18.730;2024-02-28T00:59:22;110.93;;;60.07;;
42514;SDS011;28144;49.920;18.730;2024-02-28T01:01:48;110.23;;;56.13;;
42514;SDS011;28144;49.920;18.730;2024-02-28T01:04:14;139.25;;;78.72;;
42514;SDS011;28144;49.920;18.730;2024-02-28T01:06:39;118.13;;;63.57;;
42514;SDS011;28144;49.920;18.730;2024-02-28T01:09:05;116.80;;;62.00;;
42514;SDS011;28144;49.920;18.730;2024-02-28T01:11:31;120.40;;;61.33;;
42514;SDS011;28144;49.920;18.730;2024-02-28T01:13:57;97.82;;;51.35;;
42514;SDS011;28144;49.920;18.730;2024-02-28T01:16:23;97.77;;;55.37;;
42514;SDS011;28144;49.920;18.730;2024-02-28T01:18:49;102.32;;;51.85;;
42514;SDS011;28144;49.920;18.730;2024-02-28T01:21:14;111.77;;;58.90;;
42514;SDS011;28144;49.920;18.730;2024-02-28T01:23:40;183.77;;;69.63;;
42514;SDS011;28144;49.920;18.730;2024-02-28T01:26:06;150.43;;;71.93;;
42514;SDS011;28144;49.920;18.730;2024-02-28T01:28:32;142.53;;;77.67;;
42514;SDS011;28144;49.920;18.730;2024-02-28T01:30:57;162.37;;;78.60;;
42514;SDS011;28144;49.920;18.730;2024-02-28T01:33:23;167.23;;;81.10;;
42514;SDS011;28144;49.920;18.730;2024-02-28T01:35:49;175.60;;;84.07;;
42514;SDS011;28144;49.920;18.730;2024-02-28T01:38:15;172.00;;;84.40;;
42514;SDS011;28144;49.920;18.730;2024-02-28T01:40:44;164.00;;;80.93;;
42514;SDS011;28144;49.920;18.730;2024-02-28T01:43:13;156.97;;;79.43;;
42514;SDS011;28144;49.920;18.730;2024-02-28T01:45:39;142.93;;;76.10;;
42514;SDS011;28144;49.920;18.730;2024-02-28T01:48:09;177.30;;;93.55;;
42514;SDS011;28144;49.920;18.730;2024-02-28T01:50:35;170.57;;;89.93;;
42514;SDS011;28144;49.920;18.730;2024-02-28T01:53:02;150.13;;;78.47;;
42514;SDS011;28144;49.920;18.730;2024-02-28T01:55:29;138.27;;;72.93;;
42514;SDS011;28144;49.920;18.730;2024-02-28T01:57:55;131.73;;;67.65;;
42514;SDS011;28144;49.920;18.730;2024-02-28T02:00:21;124.50;;;68.23;;
42514;SDS011;28144;49.920;18.730;2024-02-28T02:02:48;166.20;;;78.50;;
42514;SDS011;28144;49.920;18.730;2024-02-28T02:05:14;155.17;;;83.93;;
42514;SDS011;28144;49.920;18.730;2024-02-28T02:07:42;189.40;;;86.37;;
42514;SDS011;28144;49.920;18.730;2024-02-28T02:10:08;441.55;;;80.18;;
42514;SDS011;28144;49.920;18.730;2024-02-28T02:12:37;176.53;;;92.97;;
42514;SDS011;28144;49.920;18.730;2024-02-28T02:15:03;125.73;;;65.97;;
42514;SDS011;28144;49.920;18.730;2024-02-28T02:17:29;119.57;;;63.33;;
42514;SDS011;28144;49.920;18.730;2024-02-28T02:19:55;133.30;;;65.97;;
42514;SDS011;28144;49.920;18.730;2024-02-28T02:22:21;130.50;;;68.30;;
42514;SDS011;28144;49.920;18.730;2024-02-28T02:24:48;126.00;;;67.30;;
42514;SDS011;28144;49.920;18.730;2024-02-28T02:27:14;130.27;;;65.85;;
42514;SDS011;28144;49.920;18.730;2024-02-28T02:29:40;118.87;;;63.43;;
42514;SDS011;28144;49.920;18.730;2024-02-28T02:32:06;116.47;;;60.58;;
42514;SDS011;28144;49.920;18.730;2024-02-28T02:34:32;127.00;;;60.80;;
42514;SDS011;28144;49.920;18.730;2024-02-28T02:36:57;119.17;;;59.93;;
42514;SDS011;28144;49.920;18.730;2024-02-28T02:39:23;113.17;;;62.17;;
42514;SDS011;28144;49.920;18.730;2024-02-28T02:41:49;112.87;;;59.47;;
42514;SDS011;28144;49.920;18.730;2024-02-28T02:44:14;109.20;;;59.23;;
42514;SDS011;28144;49.920;18.730;2024-02-28T02:46:40;113.57;;;59.58;;
42514;SDS011;28144;49.920;18.730;2024-02-28T02:49:06;119.97;;;61.23;;
42514;SDS011;28144;49.920;18.730;2024-02-28T02:51:32;110.03;;;61.07;;
42514;SDS011;28144;49.920;18.730;2024-02-28T02:53:58;103.43;;;57.97;;
42514;SDS011;28144;49.920;18.730;2024-02-28T02:56:24;101.15;;;57.67;;
42514;SDS011;28144;49.920;18.730;2024-02-28T02:58:50;107.23;;;56.37;;
42514;SDS011;28144;49.920;18.730;2024-02-28T03:01:15;107.43;;;57.20;;
42514;SDS011;28144;49.920;18.730;2024-02-28T03:03:41;103.17;;;56.07;;
42514;SDS011;28144;49.920;18.730;2024-02-28T03:06:07;105.77;;;55.97;;
42514;SDS011;28144;49.920;18.730;2024-02-28T03:08:35;102.83;;;54.80;;
42514;SDS011;28144;49.920;18.730;2024-02-28T03:11:00;102.10;;;54.80;;
42514;SDS011;28144;49.920;18.730;2024-02-28T03:13:28;101.07;;;55.53;;
42514;SDS011;28144;49.920;18.730;2024-02-28T03:15:54;94.70;;;52.08;;
42514;SDS011;28144;49.920;18.730;2024-02-28T03:18:20;98.70;;;54.97;;
42514;SDS011;28144;49.920;18.730;2024-02-28T03:20:46;103.40;;;57.75;;
42514;SDS011;28144;49.920;18.730;2024-02-28T03:23:11;107.47;;;61.43;;
42514;SDS011;28144;49.920;18.730;2024-02-28T03:25:37;106.03;;;56.80;;
42514;SDS011;28144;49.920;18.730;2024-02-28T03:28:03;98.07;;;55.80;;
42514;SDS011;28144;49.920;18.730;2024-02-28T03:30:29;92.43;;;50.70;;
42514;SDS011;28144;49.920;18.730;2024-02-28T03:32:54;96.70;;;54.13;;
42514;SDS011;28144;49.920;18.730;2024-02-28T03:35:20;107.55;;;58.33;;
42514;SDS011;28144;49.920;18.730;2024-02-28T03:37:46;94.07;;;51.20;;
42514;SDS011;28144;49.920;18.730;2024-02-28T03:40:12;92.13;;;50.77;;
42514;SDS011;28144;49.920;18.730;2024-02-28T03:42:37;91.47;;;49.17;;
42514;SDS011;28144;49.920;18.730;2024-02-28T03:45:03;88.30;;;49.70;;
42514;SDS011;28144;49.920;18.730;2024-02-28T03:47:29;98.75;;;50.63;;
42514;SDS011;28144;49.920;18.730;2024-02-28T03:49:55;98.97;;;53.13;;
42514;SDS011;28144;49.920;18.730;2024-02-28T03:52:22;104.63;;;55.37;;
42514;SDS011;28144;49.920;18.730;2024-02-28T03:54:49;100.70;;;53.60;;
42514;SDS011;28144;49.920;18.730;2024-02-28T03:57:14;115.27;;;62.37;;
42514;SDS011;28144;49.920;18.730;2024-02-28T03:59:40;110.80;;;61.67;;
42514;SDS011;28144;49.920;18.730;2024-02-28T04:02:06;110.35;;;58.67;;
42514;SDS011;28144;49.920;18.730;2024-02-28T04:04:32;111.83;;;56.80;;
42514;SDS011;28144;49.920;18.730;2024-02-28T04:06:59;105.80;;;55.72;;
42514;SDS011;28144;49.920;18.730;2024-02-28T04:09:25;102.78;;;55.35;;
42514;SDS011;28144;49.920;18.730;2024-02-28T04:11:50;107.33;;;55.20;;
42514;SDS011;28144;49.920;18.730;2024-02-28T04:14:17;107.75;;;56.88;;
42514;SDS011;28144;49.920;18.730;2024-02-28T04:16:42;97.20;;;52.90;;
42514;SDS011;28144;49.920;18.730;2024-02-28T04:19:12;91.90;;;52.97;;
42514;SDS011;28144;49.920;18.730;2024-02-28T04:21:38;95.63;;;53.33;;
42514;SDS011;28144;49.920;18.730;2024-02-28T04:24:05;95.45;;;51.35;;
42514;SDS011;28144;49.920;18.730;2024-02-28T04:26:31;103.13;;;52.93;;
42514;SDS011;28144;49.920;18.730;2024-02-28T04:28:57;102.27;;;54.43;;
42514;SDS011;28144;49.920;18.730;2024-02-28T04:31:24;103.45;;;52.55;;
42514;SDS011;28144;49.920;18.730;2024-02-28T04:33:50;109.63;;;54.42;;
42514;SDS011;28144;49.920;18.730;2024-02-28T04:36:15;102.50;;;55.10;;
42514;SDS011;28144;49.920;18.730;2024-02-28T04:38:41;102.67;;;59.73;;
42514;SDS011;28144;49.920;18.730;2024-02-28T04:41:07;96.23;;;52.67;;
42514;SDS011;28144;49.920;18.730;2024-02-28T04:43:33;107.37;;;53.60;;
42514;SDS011;28144;49.920;18.730;2024-02-28T04:45:58;124.67;;;66.17;;
42514;SDS011;28144;49.920;18.730;2024-02-28T04:48:24;103.67;;;55.87;;
42514;SDS011;28144;49.920;18.730;2024-02-28T04:50:51;198.57;;;62.17;;
42514;SDS011;28144;49.920;18.730;2024-02-28T04:55:42;103.07;;;52.80;;
42514;SDS011;28144;49.920;18.730;2024-02-28T04:58:08;122.20;;;53.15;;
42514;SDS011;28144;49.920;18.730;2024-02-28T05:00:34;144.80;;;60.77;;
42514;SDS011;28144;49.920;18.730;2024-02-28T05:03:00;210.53;;;60.67;;
42514;SDS011;28144;49.920;18.730;2024-02-28T05:05:26;124.87;;;57.20;;
42514;SDS011;28144;49.920;18.730;2024-02-28T05:07:52;110.63;;;57.47;;
42514;SDS011;28144;49.920;18.730;2024-02-28T05:10:17;120.17;;;57.83;;
42514;SDS011;28144;49.920;18.730;2024-02-28T05:12:43;130.67;;;59.83;;
42514;SDS011;28144;49.920;18.730;2024-02-28T05:15:09;127.28;;;63.40;;
42514;SDS011;28144;49.920;18.730;2024-02-28T05:17:35;126.03;;;66.60;;
42514;SDS011;28144;49.920;18.730;2024-02-28T05:20:01;164.07;;;73.30;;
42514;SDS011;28144;49.920;18.730;2024-02-28T05:22:26;158.47;;;75.47;;
42514;SDS011;28144;49.920;18.730;2024-02-28T05:24:52;126.90;;;70.07;;
42514;SDS011;28144;49.920;18.730;2024-02-28T05:27:18;172.87;;;80.00;;
42514;SDS011;28144;49.920;18.730;2024-02-28T05:29:45;165.45;;;81.40;;
42514;SDS011;28144;49.920;18.730;2024-02-28T05:32:10;193.37;;;77.70;;
42514;SDS011;28144;49.920;18.730;2024-02-28T05:34:37;242.15;;;77.65;;
42514;SDS011;28144;49.920;18.730;2024-02-28T05:37:03;147.07;;;71.10;;
42514;SDS011;28144;49.920;18.730;2024-02-28T05:39:29;191.43;;;81.10;;
42514;SDS011;28144;49.920;18.730;2024-02-28T05:44:23;201.37;;;112.50;;
42514;SDS011;28144;49.920;18.730;2024-02-28T05:49:15;162.18;;;85.68;;
42514;SDS011;28144;49.920;18.730;2024-02-28T05:51:41;171.13;;;93.20;;
42514;SDS011;28144;49.920;18.730;2024-02-28T05:54:07;185.20;;;85.37;;
42514;SDS011;28144;49.920;18.730;2024-02-28T05:56:32;195.47;;;83.63;;
42514;SDS011;28144;49.920;18.730;2024-02-28T05:58:58;164.63;;;83.00;;
42514;SDS011;28144;49.920;18.730;2024-02-28T06:01:24;170.37;;;86.00;;
42514;SDS011;28144;49.920;18.730;2024-02-28T06:03:50;160.20;;;86.30;;
42514;SDS011;28144;49.920;18.730;2024-02-28T06:06:16;179.27;;;84.55;;
42514;SDS011;28144;49.920;18.730;2024-02-28T06:08:43;205.82;;;91.63;;
42514;SDS011;28144;49.920;18.730;2024-02-28T06:11:09;181.20;;;89.07;;
42514;SDS011;28144;49.920;18.730;2024-02-28T06:13:35;186.98;;;89.30;;
42514;SDS011;28144;49.920;18.730;2024-02-28T06:16:01;173.90;;;86.55;;
42514;SDS011;28144;49.920;18.730;2024-02-28T06:18:28;199.30;;;89.07;;
42514;SDS011;28144;49.920;18.730;2024-02-28T06:20:54;176.18;;;86.03;;
42514;SDS011;28144;49.920;18.730;2024-02-28T06:23:24;187.75;;;88.03;;
42514;SDS011;28144;49.920;18.730;2024-02-28T06:25:49;203.50;;;90.97;;
42514;SDS011;28144;49.920;18.730;2024-02-28T06:28:15;181.38;;;87.50;;
42514;SDS011;28144;49.920;18.730;2024-02-28T06:30:42;194.73;;;91.03;;
42514;SDS011;28144;49.920;18.730;2024-02-28T06:33:09;205.73;;;93.57;;
42514;SDS011;28144;49.920;18.730;2024-02-28T06:35:35;199.43;;;96.03;;
42514;SDS011;28144;49.920;18.730;2024-02-28T06:38:01;194.17;;;92.57;;
42514;SDS011;28144;49.920;18.730;2024-02-28T06:40:26;210.32;;;93.20;;
42514;SDS011;28144;49.920;18.730;2024-02-28T06:42:54;192.17;;;90.10;;
42514;SDS011;28144;49.920;18.730;2024-02-28T06:45:19;190.63;;;91.93;;
42514;SDS011;28144;49.920;18.730;2024-02-28T06:47:46;194.17;;;92.50;;
42514;SDS011;28144;49.920;18.730;2024-02-28T06:50:12;178.93;;;89.28;;
42514;SDS011;28144;49.920;18.730;2024-02-28T06:52:38;188.90;;;91.75;;
42514;SDS011;28144;49.920;18.730;2024-02-28T06:55:04;210.27;;;103.17;;
42514;SDS011;28144;49.920;18.730;2024-02-28T06:57:39;191.40;;;93.37;;
42514;SDS011;28144;49.920;18.730;2024-02-28T07:00:06;197.03;;;90.77;;
42514;SDS011;28144;49.920;18.730;2024-02-28T07:02:44;203.63;;;97.73;;
42514;SDS011;28144;49.920;18.730;2024-02-28T07:05:10;202.33;;;95.43;;
42514;SDS011;28144;49.920;18.730;2024-02-28T07:07:36;197.77;;;93.35;;
42514;SDS011;28144;49.920;18.730;2024-02-28T07:10:04;199.90;;;95.20;;
42514;SDS011;28144;49.920;18.730;2024-02-28T07:12:31;187.70;;;91.17;;
42514;SDS011;28144;49.920;18.730;2024-02-28T07:14:56;213.77;;;95.23;;
42514;SDS011;28144;49.920;18.730;2024-02-28T07:17:22;204.60;;;97.20;;
42514;SDS011;28144;49.920;18.730;2024-02-28T07:19:48;229.30;;;102.33;;
42514;SDS011;28144;49.920;18.730;2024-02-28T07:22:14;296.77;;;105.78;;
42514;SDS011;28144;49.920;18.730;2024-02-28T07:24:39;238.63;;;106.57;;
42514;SDS011;28144;49.920;18.730;2024-02-28T07:27:06;249.75;;;109.45;;
42514;SDS011;28144;49.920;18.730;2024-02-28T07:29:31;254.77;;;105.27;;
42514;SDS011;28144;49.920;18.730;2024-02-28T07:31:57;277.00;;;116.97;;
42514;SDS011;28144;49.920;18.730;2024-02-28T07:34:23;245.80;;;106.10;;
42514;SDS011;28144;49.920;18.730;2024-02-28T07:36:48;257.17;;;110.53;;
42514;SDS011;28144;49.920;18.730;2024-02-28T07:39:15;282.88;;;114.97;;
42514;SDS011;28144;49.920;18.730;2024-02-28T07:41:41;254.43;;;109.50;;
42514;SDS011;28144;49.920;18.730;2024-02-28T07:44:10;284.50;;;113.13;;
42514;SDS011;28144;49.920;18.730;2024-02-28T07:46:36;266.73;;;113.53;;
42514;SDS011;28144;49.920;18.730;2024-02-28T07:49:02;284.67;;;116.23;;
42514;SDS011;28144;49.920;18.730;2024-02-28T07:51:28;268.57;;;113.10;;
42514;SDS011;28144;49.920;18.730;2024-02-28T07:53:54;314.98;;;124.15;;
42514;SDS011;28144;49.920;18.730;2024-02-28T07:56:20;307.10;;;124.07;;
42514;SDS011;28144;49.920;18.730;2024-02-28T07:58:46;306.55;;;121.85;;
42514;SDS011;28144;49.920;18.730;2024-02-28T08:01:12;311.25;;;127.85;;
42514;SDS011;28144;49.920;18.730;2024-02-28T08:03:38;308.90;;;119.93;;
42514;SDS011;28144;49.920;18.730;2024-02-28T08:06:04;330.38;;;138.48;;
42514;SDS011;28144;49.920;18.730;2024-02-28T08:08:30;305.70;;;122.57;;
42514;SDS011;28144;49.920;18.730;2024-02-28T08:10:56;323.55;;;124.15;;
42514;SDS011;28144;49.920;18.730;2024-02-28T08:13:22;328.13;;;124.07;;
42514;SDS011;28144;49.920;18.730;2024-02-28T08:15:48;318.20;;;125.80;;
42514;SDS011;28144;49.920;18.730;2024-02-28T08:18:13;329.77;;;127.60;;
42514;SDS011;28144;49.920;18.730;2024-02-28T08:20:39;357.95;;;129.02;;
42514;SDS011;28144;49.920;18.730;2024-02-28T08:23:05;320.83;;;122.50;;
42514;SDS011;28144;49.920;18.730;2024-02-28T08:25:31;339.58;;;131.25;;
42514;SDS011;28144;49.920;18.730;2024-02-28T08:27:57;349.50;;;131.40;;
42514;SDS011;28144;49.920;18.730;2024-02-28T08:30:23;336.63;;;128.70;;
42514;SDS011;28144;49.920;18.730;2024-02-28T08:32:49;343.30;;;129.73;;
42514;SDS011;28144;49.920;18.730;2024-02-28T08:35:17;323.27;;;122.57;;
42514;SDS011;28144;49.920;18.730;2024-02-28T08:37:43;316.57;;;125.97;;
42514;SDS011;28144;49.920;18.730;2024-02-28T08:40:10;339.63;;;132.07;;
42514;SDS011;28144;49.920;18.730;2024-02-28T08:42:36;323.45;;;126.85;;
42514;SDS011;28144;49.920;18.730;2024-02-28T08:45:03;323.50;;;121.63;;
42514;SDS011;28144;49.920;18.730;2024-02-28T08:47:29;321.02;;;123.38;;
42514;SDS011;28144;49.920;18.730;2024-02-28T08:49:55;307.23;;;117.78;;
42514;SDS011;28144;49.920;18.730;2024-02-28T08:52:20;303.30;;;119.53;;
42514;SDS011;28144;49.920;18.730;2024-02-28T08:54:47;308.15;;;118.72;;
42514;SDS011;28144;49.920;18.730;2024-02-28T08:57:14;319.38;;;123.63;;
42514;SDS011;28144;49.920;18.730;2024-02-28T08:59:40;309.52;;;121.03;;
42514;SDS011;28144;49.920;18.730;2024-02-28T09:02:09;336.43;;;130.73;;
42514;SDS011;28144;49.920;18.730;2024-02-28T09:04:37;326.40;;;131.53;;
42514;SDS011;28144;49.920;18.730;2024-02-28T09:09:29;285.05;;;112.38;;
42514;SDS011;28144;49.920;18.730;2024-02-28T09:11:57;295.20;;;116.80;;
42514;SDS011;28144;49.920;18.730;2024-02-28T09:14:23;302.70;;;116.18;;
42514;SDS011;28144;49.920;18.730;2024-02-28T09:16:49;290.10;;;116.47;;
42514;SDS011;28144;49.920;18.730;2024-02-28T09:19:15;294.05;;;114.28;;
42514;SDS011;28144;49.920;18.730;2024-02-28T09:21:40;294.37;;;114.00;;
42514;SDS011;28144;49.920;18.730;2024-02-28T09:24:06;282.43;;;115.87;;
42514;SDS011;28144;49.920;18.730;2024-02-28T09:26:32;289.13;;;118.77;;
42514;SDS011;28144;49.920;18.730;2024-02-28T09:29:16;305.17;;;122.87;;
42514;SDS011;28144;49.920;18.730;2024-02-28T09:31:42;310.58;;;122.32;;
42514;SDS011;28144;49.920;18.730;2024-02-28T09:34:08;311.93;;;121.53;;
42514;SDS011;28144;49.920;18.730;2024-02-28T09:36:41;306.43;;;119.50;;
42514;SDS011;28144;49.920;18.730;2024-02-28T09:39:08;307.80;;;123.37;;
42514;SDS011;28144;49.920;18.730;2024-02-28T09:41:34;311.60;;;118.78;;
42514;SDS011;28144;49.920;18.730;2024-02-28T09:44:00;300.67;;;115.50;;
42514;SDS011;28144;49.920;18.730;2024-02-28T09:46:29;281.33;;;116.03;;
42514;SDS011;28144;49.920;18.730;2024-02-28T09:48:54;288.60;;;112.87;;
42514;SDS011;28144;49.920;18.730;2024-02-28T09:51:21;313.80;;;118.38;;
42514;SDS011;28144;49.920;18.730;2024-02-28T09:53:47;288.00;;;113.32;;
42514;SDS011;28144;49.920;18.730;2024-02-28T09:56:13;284.98;;;113.68;;
42514;SDS011;28144;49.920;18.730;2024-02-28T09:58:40;279.47;;;109.90;;
42514;SDS011;28144;49.920;18.730;2024-02-28T10:01:08;306.83;;;130.97;;
42514;SDS011;28144;49.920;18.730;2024-02-28T10:03:34;263.27;;;108.03;;
42514;SDS011;28144;49.920;18.730;2024-02-28T10:06:02;261.27;;;110.30;;
42514;SDS011;28144;49.920;18.730;2024-02-28T10:08:27;266.33;;;107.47;;
42514;SDS011;28144;49.920;18.730;2024-02-28T10:10:54;273.63;;;109.37;;
42514;SDS011;28144;49.920;18.730;2024-02-28T10:13:21;262.50;;;106.72;;
42514;SDS011;28144;49.920;18.730;2024-02-28T10:15:48;275.70;;;111.03;;
42514;SDS011;28144;49.920;18.730;2024-02-28T10:18:14;268.77;;;107.55;;
42514;SDS011;28144;49.920;18.730;2024-02-28T10:20:42;264.88;;;106.00;;
42514;SDS011;28144;49.920;18.730;2024-02-28T10:23:07;276.00;;;105.20;;
42514;SDS011;28144;49.920;18.730;2024-02-28T10:25:45;268.03;;;107.00;;
42514;SDS011;28144;49.920;18.730;2024-02-28T10:28:11;264.60;;;103.28;;
42514;SDS011;28144;49.920;18.730;2024-02-28T10:30:40;269.63;;;104.30;;
42514;SDS011;28144;49.920;18.730;2024-02-28T10:33:12;286.03;;;111.37;;
42514;SDS011;28144;49.920;18.730;2024-02-28T10:35:41;273.00;;;105.83;;
42514;SDS011;28144;49.920;18.730;2024-02-28T10:38:13;276.87;;;105.73;;
42514;SDS011;28144;49.920;18.730;2024-02-28T10:40:39;275.70;;;108.60;;
42514;SDS011;28144;49.920;18.730;2024-02-28T10:43:07;264.52;;;106.60;;
42514;SDS011;28144;49.920;18.730;2024-02-28T10:45:33;278.50;;;106.40;;
42514;SDS011;28144;49.920;18.730;2024-02-28T10:48:01;281.20;;;110.63;;
42514;SDS011;28144;49.920;18.730;2024-02-28T10:50:28;280.53;;;115.10;;
42514;SDS011;28144;49.920;18.730;2024-02-28T10:52:54;270.03;;;104.47;;
42514;SDS011;28144;49.920;18.730;2024-02-28T10:55:33;272.80;;;104.40;;
42514;SDS011;28144;49.920;18.730;2024-02-28T10:58:06;261.03;;;107.00;;
42514;SDS011;28144;49.920;18.730;2024-02-28T11:00:37;284.75;;;112.20;;
42514;SDS011;28144;49.920;18.730;2024-02-28T11:03:04;285.23;;;115.93;;
42514;SDS011;28144;49.920;18.730;2024-02-28T11:05:36;300.58;;;118.32;;
42514;SDS011;28144;49.920;18.730;2024-02-28T11:08:05;292.87;;;116.87;;
42514;SDS011;28144;49.920;18.730;2024-02-28T11:10:35;291.37;;;115.90;;
42514;SDS011;28144;49.920;18.730;2024-02-28T11:13:00;293.13;;;116.70;;
42514;SDS011;28144;49.920;18.730;2024-02-28T11:15:26;290.27;;;112.63;;
42514;SDS011;28144;49.920;18.730;2024-02-28T11:17:53;296.42;;;121.70;;
42514;SDS011;28144;49.920;18.730;2024-02-28T11:20:19;297.20;;;113.50;;
42514;SDS011;28144;49.920;18.730;2024-02-28T11:22:45;304.10;;;118.70;;
42514;SDS011;28144;49.920;18.730;2024-02-28T11:25:11;307.58;;;114.07;;
42514;SDS011;28144;49.920;18.730;2024-02-28T11:27:46;308.27;;;114.93;;
42514;SDS011;28144;49.920;18.730;2024-02-28T11:30:13;301.83;;;114.15;;
42514;SDS011;28144;49.920;18.730;2024-02-28T11:32:39;285.42;;;111.78;;
42514;SDS011;28144;49.920;18.730;2024-02-28T11:35:05;277.73;;;109.77;;
42514;SDS011;28144;49.920;18.730;2024-02-28T11:37:31;324.33;;;121.57;;
42514;SDS011;28144;49.920;18.730;2024-02-28T11:39:58;299.77;;;115.43;;
42514;SDS011;28144;49.920;18.730;2024-02-28T11:42:24;304.73;;;117.30;;
42514;SDS011;28144;49.920;18.730;2024-02-28T11:44:53;275.75;;;108.82;;
42514;SDS011;28144;49.920;18.730;2024-02-28T11:47:21;278.43;;;105.10;;
42514;SDS011;28144;49.920;18.730;2024-02-28T11:52:14;254.50;;;102.13;;
42514;SDS011;28144;49.920;18.730;2024-02-28T11:54:40;264.43;;;102.97;;
42514;SDS011;28144;49.920;18.730;2024-02-28T11:57:07;243.17;;;102.33;;
42514;SDS011;28144;49.920;18.730;2024-02-28T11:59:33;248.50;;;100.00;;
42514;SDS011;28144;49.920;18.730;2024-02-28T12:01:59;254.37;;;105.13;;
42514;SDS011;28144;49.920;18.730;2024-02-28T12:04:25;263.85;;;109.97;;
42514;SDS011;28144;49.920;18.730;2024-02-28T12:06:51;246.23;;;104.33;;
42514;SDS011;28144;49.920;18.730;2024-02-28T12:09:17;253.68;;;107.53;;
42514;SDS011;28144;49.920;18.730;2024-02-28T12:11:43;243.85;;;105.53;;
42514;SDS011;28144;49.920;18.730;2024-02-28T12:14:20;216.87;;;98.70;;
42514;SDS011;28144;49.920;18.730;2024-02-28T12:17:09;218.27;;;95.13;;
42514;SDS011;28144;49.920;18.730;2024-02-28T12:19:38;221.57;;;98.93;;
42514;SDS011;28144;49.920;18.730;2024-02-28T12:24:31;209.05;;;94.20;;
42514;SDS011;28144;49.920;18.730;2024-02-28T12:26:57;205.13;;;92.63;;
42514;SDS011;28144;49.920;18.730;2024-02-28T12:29:23;181.07;;;85.85;;
42514;SDS011;28144;49.920;18.730;2024-02-28T12:31:49;187.93;;;86.93;;
42514;SDS011;28144;49.920;18.730;2024-02-28T12:34:15;180.20;;;85.37;;
42514;SDS011;28144;49.920;18.730;2024-02-28T12:36:41;186.73;;;89.70;;
42514;SDS011;28144;49.920;18.730;2024-02-28T12:39:08;169.70;;;82.27;;
42514;SDS011;28144;49.920;18.730;2024-02-28T12:41:38;179.80;;;81.33;;
42514;SDS011;28144;49.920;18.730;2024-02-28T12:44:05;168.27;;;80.70;;
42514;SDS011;28144;49.920;18.730;2024-02-28T12:46:31;187.77;;;91.20;;
42514;SDS011;28144;49.920;18.730;2024-02-28T12:48:59;187.73;;;85.70;;
42514;SDS011;28144;49.920;18.730;2024-02-28T12:54:07;168.43;;;80.53;;
42514;SDS011;28144;49.920;18.730;2024-02-28T13:00:14;187.80;;;89.10;;
42514;SDS011;28144;49.920;18.730;2024-02-28T13:02:40;173.68;;;84.40;;
42514;SDS011;28144;49.920;18.730;2024-02-28T13:05:06;185.80;;;92.37;;
42514;SDS011;28144;49.920;18.730;2024-02-28T13:07:32;171.77;;;79.97;;
42514;SDS011;28144;49.920;18.730;2024-02-28T13:09:58;165.17;;;79.97;;
42514;SDS011;28144;49.920;18.730;2024-02-28T13:12:24;158.93;;;81.17;;
42514;SDS011;28144;49.920;18.730;2024-02-28T13:14:50;161.40;;;79.73;;
42514;SDS011;28144;49.920;18.730;2024-02-28T13:17:15;177.37;;;87.00;;
42514;SDS011;28144;49.920;18.730;2024-02-28T13:19:41;186.40;;;86.23;;
42514;SDS011;28144;49.920;18.730;2024-02-28T13:22:07;165.05;;;82.00;;
42514;SDS011;28144;49.920;18.730;2024-02-28T13:24:33;169.37;;;80.47;;
42514;SDS011;28144;49.920;18.730;2024-02-28T13:27:01;170.43;;;83.97;;
42514;SDS011;28144;49.920;18.730;2024-02-28T13:29:27;176.30;;;86.57;;
42514;SDS011;28144;49.920;18.730;2024-02-28T13:31:53;173.80;;;85.65;;
42514;SDS011;28144;49.920;18.730;2024-02-28T13:34:19;182.37;;;91.87;;
42514;SDS011;28144;49.920;18.730;2024-02-28T13:36:45;202.98;;;95.30;;
42514;SDS011;28144;49.920;18.730;2024-02-28T13:39:12;193.52;;;92.00;;
42514;SDS011;28144;49.920;18.730;2024-02-28T13:41:41;190.00;;;91.32;;
42514;SDS011;28144;49.920;18.730;2024-02-28T13:44:07;172.35;;;85.88;;
42514;SDS011;28144;49.920;18.730;2024-02-28T13:46:35;190.57;;;93.50;;
42514;SDS011;28144;49.920;18.730;2024-02-28T13:49:01;183.85;;;90.45;;
42514;SDS011;28144;49.920;18.730;2024-02-28T13:51:26;180.40;;;85.70;;
42514;SDS011;28144;49.920;18.730;2024-02-28T13:54:08;211.37;;;101.50;;
42514;SDS011;28144;49.920;18.730;2024-02-28T13:56:34;201.25;;;96.13;;
42514;SDS011;28144;49.920;18.730;2024-02-28T13:59:00;181.27;;;85.77;;
42514;SDS011;28144;49.920;18.730;2024-02-28T14:01:26;177.87;;;83.63;;
42514;SDS011;28144;49.920;18.730;2024-02-28T14:03:53;200.23;;;89.40;;
42514;SDS011;28144;49.920;18.730;2024-02-28T14:06:20;194.05;;;88.20;;
42514;SDS011;28144;49.920;18.730;2024-02-28T14:08:45;189.23;;;87.20;;
42514;SDS011;28144;49.920;18.730;2024-02-28T14:11:11;191.55;;;84.72;;
42514;SDS011;28144;49.920;18.730;2024-02-28T14:13:37;181.63;;;83.90;;